Terminal Aerodrome Forecast
Issued by NWS

Home | Current Version | Previous Version | Text Only | Print | Product List | Glossary On
Versions: 1 2 3 4 5 6 7 8 9 10 11 12 13 14
000
FTUS42 TJSJ 271740
TAFIST
TAF
TIST 271740Z 2718/2818 06015G26KT P6SM VCSH SCT030 BKN050
      TEMPO 2720/2723 VRB20G35KT 3SM TSRA BKN020CB
     FM272300 02025G40KT 5SM -TSRA BKN020CB
      TEMPO 2801/2805 VRB15G30KT 3SM +TSRA BKN020CB
     FM280500 13025G40KT 5SM -TSRA BKN020CB
     FM281700 14015G25KT P6SM VCTS BKN030CB=

USA.gov is the U.S. government's official web portal to all federal, state and local government web resources and services.